Time;durP1;ratioP1;P1;durP2;ratioP2;P2;SDS_P1;SDS_P2;PMS_P1;PMS_P2;Temp;Humidity;BMP_temperature;BMP_pressure;BME280_temperature;BME280_humidity;BME280_pressure;Samples;Min_cycle;Max_cycle;Signal;HPM_P1;HPM_P2
2020/12/03 00:02:05;;;;;;;30.65;18.63;;;4.30;72.50;;;;;;5053023;28;20104;-47
2020/12/03 00:04:31;;;;;;;33.75;19.75;;;4.30;72.60;;;;;;5054184;28;20079;-45
2020/12/03 00:07:00;;;;;;;32.30;19.80;;;4.10;73.50;;;;;;5047893;28;20032;-47
2020/12/03 00:09:26;;;;;;;31.67;18.77;;;4.10;73.50;;;;;;5047674;28;20083;-49
2020/12/03 00:12:00;;;;;;;35.45;20.88;;;3.90;73.80;;;;;;5044461;28;20021;-43
2020/12/03 00:14:27;;;;;;;33.10;19.55;;;4.00;74.20;;;;;;5018174;28;20047;-47
2020/12/03 00:16:53;;;;;;;33.83;19.60;;;4.20;73.70;;;;;;5034771;28;20042;-46
2020/12/03 00:19:22;;;;;;;32.13;19.52;;;4.40;72.90;;;;;;5036332;28;20075;-46
2020/12/03 00:21:58;;;;;;;30.50;18.90;;;4.30;72.70;;;;;;5036762;28;20036;-47
2020/12/03 00:24:27;;;;;;;32.03;20.08;;;4.20;72.70;;;;;;5036492;28;20511;-49
2020/12/03 00:26:54;;;;;;;32.50;18.73;;;4.30;72.50;;;;;;5036686;28;20409;-45
2020/12/03 00:29:20;;;;;;;33.05;19.83;;;4.20;72.60;;;;;;5036527;28;20104;-45
2020/12/03 00:31:47;;;;;;;36.25;20.42;;;4.10;73.50;;;;;;5036424;28;20076;-45
2020/12/03 00:34:14;;;;;;;39.58;23.33;;;4.10;73.90;;;;;;5036314;28;20032;-45
2020/12/03 00:36:40;;;;;;;37.13;21.40;;;4.20;73.70;;;;;;5014329;28;20509;-45
2020/12/03 00:39:11;;;;;;;51.00;24.77;;;4.10;73.50;;;;;;5014342;28;20084;-48
2020/12/03 00:41:37;;;;;;;25.83;14.80;;;4.20;73.80;;;;;;5014091;28;20042;-44
2020/12/03 00:44:04;;;;;;;40.42;22.63;;;4.10;73.70;;;;;;4981650;28;20161;-44
2020/12/03 00:46:33;;;;;;;40.58;22.55;;;3.90;74.70;;;;;;5014286;28;20045;-44
2020/12/03 00:48:59;;;;;;;36.20;21.90;;;4.00;75.00;;;;;;5013920;28;20092;-44
2020/12/03 00:51:25;;;;;;;33.78;20.58;;;3.90;75.10;;;;;;5014134;28;20037;-45
2020/12/03 00:53:51;;;;;;;32.35;17.67;;;3.90;75.20;;;;;;5014221;28;20390;-47
2020/12/03 00:56:18;;;;;;;23.95;14.50;;;4.00;74.80;;;;;;4965138;28;20050;-47
2020/12/03 00:58:45;;;;;;;30.00;16.75;;;3.80;75.90;;;;;;5013797;28;20034;-48
2020/12/03 01:01:12;;;;;;;28.33;17.52;;;3.80;75.60;;;;;;5014006;28;20088;-47
2020/12/03 01:03:38;;;;;;;23.83;15.43;;;3.90;75.50;;;;;;5013861;28;20030;-46
2020/12/03 01:06:04;;;;;;;26.20;16.30;;;3.80;76.10;;;;;;5013968;28;20105;-47
2020/12/03 01:08:30;;;;;;;28.23;17.17;;;3.80;75.90;;;;;;5032728;28;20390;-48
2020/12/03 01:10:56;;;;;;;27.45;16.55;;;3.80;76.00;;;;;;5017241;28;20049;-45
2020/12/03 01:13:22;;;;;;;31.45;17.42;;;3.70;76.60;;;;;;5035955;28;20057;-48
2020/12/03 01:15:48;;;;;;;28.85;17.30;;;3.60;77.10;;;;;;5034846;28;20571;-48
2020/12/03 01:18:15;;;;;;;26.90;16.20;;;3.60;77.60;;;;;;5035666;28;20061;-45
2020/12/03 01:20:41;;;;;;;28.75;15.98;;;3.60;77.50;;;;;;5035901;28;20021;-47
2020/12/03 01:23:08;;;;;;;28.25;16.27;;;3.50;78.10;;;;;;5034512;28;20075;-45
2020/12/03 01:25:35;;;;;;;30.02;16.60;;;3.50;78.00;;;;;;5035281;28;20088;-44
2020/12/03 01:28:01;;;;;;;26.55;16.70;;;3.60;77.90;;;;;;5035584;28;20037;-48
2020/12/03 01:30:26;;;;;;;24.48;15.70;;;3.60;77.60;;;;;;5035496;28;20021;-49
2020/12/03 01:32:52;;;;;;;24.85;15.50;;;3.80;77.10;;;;;;5035381;28;20057;-44
2020/12/03 01:35:19;;;;;;;28.35;17.35;;;3.80;77.00;;;;;;4968249;28;20038;-49
2020/12/03 01:37:50;;;;;;;25.45;15.65;;;3.80;77.10;;;;;;5050838;28;20037;-47
2020/12/03 01:40:22;;;;;;;23.23;14.75;;;3.80;77.30;;;;;;5053849;28;20043;-47
2020/12/03 01:42:49;;;;;;;26.58;16.15;;;3.80;77.10;;;;;;5055603;28;20107;-46
2020/12/03 01:45:46;;;;;;;25.88;16.10;;;3.80;77.00;;;;;;5055381;28;20052;-47
2020/12/03 01:48:33;;;;;;;25.05;16.35;;;3.80;77.20;;;;;;5054995;28;20036;-48
2020/12/03 01:51:01;;;;;;;25.45;15.77;;;4.00;76.60;;;;;;5036596;28;20040;-48
2020/12/03 01:53:27;;;;;;;28.55;16.70;;;3.90;76.30;;;;;;5055192;28;20025;-49
2020/12/03 01:55:54;;;;;;;27.67;16.67;;;3.90;76.40;;;;;;5054826;28;20366;-46
2020/12/03 01:58:33;;;;;;;24.48;15.90;;;3.90;76.50;;;;;;5055218;28;20112;-44
2020/12/03 02:01:01;;;;;;;24.25;15.90;;;4.00;76.20;;;;;;5055020;28;20358;-50
2020/12/03 02:03:27;;;;;;;26.63;16.60;;;4.00;76.10;;;;;;5036177;28;20037;-48
2020/12/03 02:05:53;;;;;;;25.63;15.65;;;4.00;76.40;;;;;;5054940;28;20017;-46
2020/12/03 02:08:19;;;;;;;27.15;16.88;;;4.00;76.30;;;;;;5054824;28;20021;-50
2020/12/03 02:10:44;;;;;;;24.45;16.25;;;3.90;76.40;;;;;;5054494;28;20449;-49
2020/12/03 02:13:10;;;;;;;24.30;15.75;;;4.00;76.30;;;;;;5055017;28;20024;-46
2020/12/03 02:15:36;;;;;;;23.63;14.98;;;3.90;76.40;;;;;;5054325;28;20024;-47
2020/12/03 02:18:06;;;;;;;21.75;13.93;;;4.00;75.90;;;;;;5054205;28;20037;-45
2020/12/03 02:20:32;;;;;;;24.55;15.07;;;4.00;75.80;;;;;;5054597;28;20072;-44
2020/12/03 02:22:58;;;;;;;24.63;15.63;;;4.10;75.70;;;;;;5054922;28;20025;-48
2020/12/03 02:25:24;;;;;;;23.38;14.82;;;3.90;76.00;;;;;;5054180;28;20183;-46
2020/12/03 02:27:50;;;;;;;22.02;14.57;;;4.00;76.10;;;;;;5054340;28;20658;-47
2020/12/03 02:30:16;;;;;;;24.05;15.65;;;4.00;76.00;;;;;;5035741;28;20032;-49
2020/12/03 02:32:41;;;;;;;22.45;14.63;;;4.00;75.90;;;;;;5054351;28;20021;-44
2020/12/03 02:35:10;;;;;;;23.45;15.80;;;4.10;75.40;;;;;;5054376;28;20025;-47
2020/12/03 02:37:36;;;;;;;25.63;16.15;;;4.10;75.50;;;;;;5054386;28;20357;-47
2020/12/03 02:40:04;;;;;;;21.08;14.45;;;4.00;75.80;;;;;;5054176;28;20032;-46
2020/12/03 02:42:30;;;;;;;19.55;11.45;;;4.00;76.30;;;;;;5054487;28;20334;-46
2020/12/03 02:44:55;;;;;;;22.85;14.20;;;3.80;77.00;;;;;;5053939;28;20028;-46
2020/12/03 02:47:22;;;;;;;23.88;14.45;;;3.90;76.90;;;;;;5053839;28;20025;-46
2020/12/03 02:49:49;;;;;;;23.92;15.15;;;3.80;76.90;;;;;;5054036;28;20423;-48
2020/12/03 02:52:23;;;;;;;23.92;14.63;;;3.70;77.80;;;;;;5052793;28;20548;-44
2020/12/03 02:54:50;;;;;;;22.73;12.90;;;3.60;78.20;;;;;;5053650;28;20025;-48
2020/12/03 02:57:16;;;;;;;22.25;14.10;;;3.50;78.70;;;;;;5053694;28;20033;-47
2020/12/03 02:59:42;;;;;;;21.88;13.35;;;3.60;78.40;;;;;;5053702;28;20037;-46
2020/12/03 03:02:08;;;;;;;23.65;15.23;;;3.60;78.50;;;;;;5053703;28;20033;-45
2020/12/03 03:04:34;;;;;;;22.35;13.15;;;3.80;78.30;;;;;;5053881;28;20083;-47
2020/12/03 03:07:00;;;;;;;27.67;13.20;;;3.60;78.50;;;;;;5001688;28;20036;-46
2020/12/03 03:09:26;;;;;;;25.52;14.88;;;3.60;78.60;;;;;;5053624;28;20135;-46
2020/12/03 03:11:52;;;;;;;23.05;13.60;;;3.70;78.90;;;;;;5034999;28;20040;-43
2020/12/03 03:14:19;;;;;;;22.77;13.50;;;3.70;78.60;;;;;;5053659;28;20021;-44
2020/12/03 03:16:47;;;;;;;25.02;14.10;;;3.70;78.90;;;;;;5053562;28;20427;-46
2020/12/03 03:19:14;;;;;;;23.50;12.07;;;3.70;78.80;;;;;;5053282;28;20100;-47
2020/12/03 03:21:40;;;;;;;22.85;14.43;;;3.70;78.90;;;;;;5034820;28;20039;-48
2020/12/03 03:24:06;;;;;;;25.65;13.52;;;3.70;79.00;;;;;;5052981;28;20040;-43
2020/12/03 03:26:32;;;;;;;22.67;13.20;;;3.60;79.70;;;;;;5053446;28;20028;-47
2020/12/03 03:28:57;;;;;;;22.42;13.13;;;3.70;79.40;;;;;;5053136;28;20104;-46
2020/12/03 03:31:23;;;;;;;22.17;14.00;;;3.80;78.70;;;;;;5053246;28;20024;-47
2020/12/03 03:33:49;;;;;;;23.38;14.07;;;3.80;78.60;;;;;;5053419;28;20460;-47
2020/12/03 03:36:15;;;;;;;18.38;11.85;;;3.90;78.60;;;;;;5053332;28;20036;-44
2020/12/03 03:38:40;;;;;;;22.63;15.07;;;3.90;78.50;;;;;;5029992;28;20037;-46
2020/12/03 03:41:06;;;;;;;23.60;13.80;;;3.90;78.50;;;;;;5031061;28;20041;-47
2020/12/03 03:43:33;;;;;;;20.77;13.82;;;3.90;78.30;;;;;;4998372;28;20045;-44
2020/12/03 03:45:59;;;;;;;23.08;13.48;;;3.90;78.90;;;;;;5030742;28;20468;-46
2020/12/03 03:48:25;;;;;;;16.45;8.95;;;3.80;78.70;;;;;;5030793;28;20041;-43
2020/12/03 03:50:50;;;;;;;18.15;10.90;;;3.70;79.40;;;;;;5031050;28;20053;-47
2020/12/03 03:53:16;;;;;;;19.25;11.70;;;3.70;79.30;;;;;;5030443;28;20111;-48
2020/12/03 03:55:42;;;;;;;22.15;13.55;;;3.80;79.40;;;;;;5030781;28;20037;-44
2020/12/03 03:58:08;;;;;;;22.88;13.60;;;3.70;79.40;;;;;;5030596;28;20037;-47
2020/12/03 04:00:39;;;;;;;24.02;14.82;;;3.80;79.60;;;;;;5030656;28;20036;-45
2020/12/03 04:03:12;;;;;;;21.40;12.40;;;3.80;79.40;;;;;;5031377;28;20120;-45
2020/12/03 04:05:39;;;;;;;23.63;12.95;;;3.70;79.30;;;;;;5026872;28;20022;-48
2020/12/03 04:08:05;;;;;;;21.60;13.52;;;3.80;79.40;;;;;;5011184;28;20041;-47
2020/12/03 04:10:31;;;;;;;22.30;13.35;;;3.80;79.20;;;;;;5029960;28;20398;-49
2020/12/03 04:12:56;;;;;;;17.25;10.50;;;3.90;78.80;;;;;;5033312;28;20064;-44
2020/12/03 04:15:22;;;;;;;24.45;15.40;;;3.70;79.20;;;;;;5030921;28;20084;-48
2020/12/03 04:17:48;;;;;;;24.85;15.23;;;3.80;79.00;;;;;;5032904;28;20567;-47
2020/12/03 04:20:16;;;;;;;24.75;15.05;;;3.80;78.80;;;;;;5032902;28;20362;-48
2020/12/03 04:22:45;;;;;;;21.15;12.82;;;3.80;79.10;;;;;;4997878;28;20033;-48
2020/12/03 04:25:11;;;;;;;21.52;13.52;;;3.80;79.20;;;;;;5032774;28;20049;-48
2020/12/03 04:27:37;;;;;;;19.77;11.68;;;3.70;79.40;;;;;;5032964;28;20026;-45
2020/12/03 04:30:08;;;;;;;18.73;11.98;;;3.70;79.50;;;;;;5032504;28;20469;-47
2020/12/03 04:32:34;;;;;;;22.23;13.82;;;3.70;79.50;;;;;;5032551;28;20376;-44
2020/12/03 04:35:00;;;;;;;17.10;11.65;;;3.80;79.60;;;;;;4998069;28;20442;-43
2020/12/03 04:37:26;;;;;;;21.58;13.43;;;3.60;79.90;;;;;;5032709;28;20088;-47
2020/12/03 04:39:52;;;;;;;19.20;11.73;;;3.70;80.00;;;;;;5032670;28;20083;-46
2020/12/03 04:42:33;;;;;;;17.45;10.73;;;3.70;80.10;;;;;;5032812;28;20057;-45
2020/12/03 04:45:15;;;;;;;17.77;9.73;;;3.60;80.20;;;;;;5032527;28;20025;-48
2020/12/03 04:47:50;;;;;;;21.90;12.00;;;3.60;80.30;;;;;;5032653;28;20454;-47
2020/12/03 04:50:53;;;;;;;17.42;10.75;;;3.50;80.60;;;;;;5032752;28;20373;-45
2020/12/03 04:53:40;;;;;;;;;;;3.50;81.20;;;;;;5036364;28;20045;-47
2020/12/03 04:56:11;;;;;;;20.55;12.38;;;3.50;81.40;;;;;;5036182;28;19959;-48
2020/12/03 04:58:56;;;;;;;17.57;10.03;;;3.50;81.30;;;;;;5001013;28;20044;-44
2020/12/03 05:01:42;;;;;;;16.45;8.68;;;3.60;81.10;;;;;;5035707;28;20030;-45
2020/12/03 05:04:27;;;;;;;19.40;10.45;;;3.50;81.60;;;;;;5036097;28;20541;-46
2020/12/03 05:07:01;;;;;;;20.63;9.60;;;3.50;81.90;;;;;;5035888;28;20024;-45
2020/12/03 05:09:51;;;;;;;11.95;7.20;;;3.50;82.10;;;;;;5035718;28;20384;-48
2020/12/03 05:12:40;;;;;;;15.90;9.75;;;3.50;82.30;;;;;;5017414;28;20057;-44
2020/12/03 05:15:33;;;;;;;26.45;15.77;;;3.50;82.40;;;;;;5035380;28;20444;-44
2020/12/03 05:18:18;;;;;;;18.45;11.75;;;3.60;81.90;;;;;;5035366;28;20037;-43
2020/12/03 05:20:56;;;;;;;27.95;15.13;;;3.70;81.80;;;;;;5035663;28;20029;-46
2020/12/03 05:23:23;;;;;;;23.13;11.13;;;3.80;81.60;;;;;;5035565;28;20034;-47
2020/12/03 05:25:52;;;;;;;25.55;13.80;;;4.00;81.30;;;;;;5035575;28;20037;-45
2020/12/03 05:28:21;;;;;;;39.58;16.60;;;3.90;81.50;;;;;;5035581;28;20108;-48
2020/12/03 05:30:52;;;;;;;28.75;12.73;;;4.00;81.50;;;;;;5035180;28;20026;-45
2020/12/03 05:33:18;;;;;;;22.65;10.20;;;4.00;81.40;;;;;;5034964;28;20037;-47
2020/12/03 05:35:45;;;;;;;20.77;10.93;;;4.00;81.30;;;;;;5034593;28;20041;-49
2020/12/03 05:38:25;;;;;;;19.23;11.40;;;4.10;81.10;;;;;;5034585;28;20033;-47
2020/12/03 05:41:05;;;;;;;12.40;6.07;;;4.10;81.10;;;;;;5034569;28;20040;-48
2020/12/03 05:43:32;;;;;;;32.30;15.05;;;4.00;81.20;;;;;;5035179;28;20079;-48
2020/12/03 05:46:01;;;;;;;18.33;11.13;;;4.10;81.10;;;;;;5037107;28;20060;-46
2020/12/03 05:48:28;;;;;;;16.45;9.48;;;4.10;81.00;;;;;;5034067;28;20037;-49
2020/12/03 05:50:55;;;;;;;26.92;14.57;;;4.10;81.00;;;;;;5034847;28;20029;-46
2020/12/03 05:53:24;;;;;;;21.27;11.30;;;4.10;81.30;;;;;;5034259;28;20041;-44
2020/12/03 05:55:50;;;;;;;20.83;13.60;;;4.10;80.90;;;;;;5034991;28;20061;-43
2020/12/03 05:58:32;;;;;;;15.00;9.32;;;4.20;80.80;;;;;;5016245;28;20104;-45
2020/12/03 06:01:16;;;;;;;17.80;10.27;;;4.10;81.10;;;;;;5036818;28;20033;-43
2020/12/03 06:04:06;;;;;;;17.25;9.60;;;4.00;81.30;;;;;;5034109;28;20029;-46
2020/12/03 06:07:02;;;;;;;21.90;10.32;;;4.10;81.10;;;;;;5034354;28;20036;-47
2020/12/03 06:10:05;;;;;;;18.25;9.73;;;4.00;81.40;;;;;;5034863;28;20037;-49
2020/12/03 06:13:03;;;;;;;;;;;4.00;81.30;;;;;;5016814;28;20056;-47
2020/12/03 06:15:40;;;;;;;16.23;8.70;;;3.90;81.80;;;;;;4958263;28;19917;-45
2020/12/03 06:18:08;;;;;;;26.92;14.52;;;3.90;82.10;;;;;;4973254;28;20042;-44
2020/12/03 06:21:16;;;;;;;19.90;11.35;;;3.90;81.80;;;;;;4973617;28;20027;-45
2020/12/03 06:24:06;;;;;;;15.98;8.98;;;3.90;82.30;;;;;;4973477;28;20035;-48
2020/12/03 06:26:51;;;;;;;21.88;12.43;;;4.00;81.80;;;;;;4973604;28;20121;-46
2020/12/03 06:29:26;;;;;;;22.60;11.77;;;4.10;81.90;;;;;;4940641;28;20466;-46
2020/12/03 06:32:15;;;;;;;23.45;14.30;;;4.20;81.80;;;;;;4973308;28;20035;-44
2020/12/03 06:34:55;;;;;;;22.05;12.55;;;4.30;81.50;;;;;;4957336;28;20031;-46
2020/12/03 06:37:50;;;;;;;19.42;11.52;;;4.30;81.30;;;;;;4973013;28;20054;-47
2020/12/03 06:40:24;;;;;;;22.35;12.88;;;4.40;81.30;;;;;;4932636;29;20448;-47
2020/12/03 06:43:05;;;;;;;23.33;11.98;;;4.40;81.30;;;;;;4934772;29;20087;-46
2020/12/03 06:45:55;;;;;;;14.07;9.55;;;4.60;80.70;;;;;;4934434;29;20098;-45
2020/12/03 06:48:38;;;;;;;12.25;7.45;;;4.80;79.90;;;;;;4934764;29;20028;-45
2020/12/03 06:51:21;;;;;;;16.02;9.13;;;5.00;79.30;;;;;;4962694;28;20035;-46
2020/12/03 06:54:06;;;;;;;19.00;9.55;;;5.20;79.00;;;;;;4992634;28;20042;-45
2020/12/03 06:57:00;;;;;;;17.77;10.50;;;5.40;77.90;;;;;;4989281;28;20061;-50
2020/12/03 06:59:48;;;;;;;16.55;10.07;;;5.30;77.80;;;;;;4969933;28;20419;-47
2020/12/03 07:02:23;;;;;;;17.23;10.40;;;5.30;77.90;;;;;;4934496;29;20095;-51
2020/12/03 07:05:09;;;;;;;11.52;6.32;;;5.10;78.50;;;;;;4933557;29;20527;-45
2020/12/03 07:07:48;;;;;;;19.83;11.88;;;4.90;79.30;;;;;;4933486;29;20036;-48
2020/12/03 07:10:32;;;;;;;12.88;8.15;;;4.90;80.10;;;;;;4933466;29;20142;-49
2020/12/03 07:13:16;;;;;;;18.15;10.80;;;4.90;80.10;;;;;;4933779;29;20075;-50
2020/12/03 07:16:00;;;;;;;19.55;13.10;;;4.90;80.20;;;;;;4931799;29;20036;-47
2020/12/03 07:18:41;;;;;;;20.38;12.32;;;5.10;80.00;;;;;;4953385;29;20158;-49
2020/12/03 07:21:30;;;;;;;19.10;10.80;;;5.10;79.60;;;;;;4958763;28;20435;-46
2020/12/03 07:24:08;;;;;;;22.70;11.52;;;5.20;80.10;;;;;;4952398;28;20445;-48
2020/12/03 07:26:44;;;;;;;17.52;8.88;;;5.20;80.20;;;;;;4957291;28;20070;-49
2020/12/03 07:29:18;;;;;;;13.80;7.38;;;5.20;80.20;;;;;;4953896;28;20035;-48
2020/12/03 07:31:48;;;;;;;16.60;9.23;;;5.30;79.90;;;;;;4951042;29;20035;-49
2020/12/03 07:34:44;;;;;;;16.42;9.95;;;5.30;80.10;;;;;;4954145;28;20587;-50
2020/12/03 07:37:39;;;;;;;20.50;10.68;;;5.40;79.60;;;;;;4968931;28;20502;-46
2020/12/03 07:40:07;;;;;;;19.83;11.93;;;5.40;79.80;;;;;;5020458;28;20124;-47
2020/12/03 07:42:32;;;;;;;27.90;11.55;;;5.40;80.00;;;;;;5033248;28;20060;-49
2020/12/03 07:44:58;;;;;;;14.20;8.15;;;5.50;79.30;;;;;;5033766;28;20025;-47
2020/12/03 07:47:31;;;;;;;18.50;7.97;;;5.40;79.60;;;;;;5033129;28;20033;-46
2020/12/03 07:49:57;;;;;;;21.90;7.82;;;5.40;79.80;;;;;;5033363;28;20048;-46
2020/12/03 07:52:26;;;;;;;16.55;9.45;;;5.30;79.80;;;;;;5033215;28;20037;-47
2020/12/03 07:54:52;;;;;;;38.70;13.77;;;5.30;79.90;;;;;;5033463;28;20029;-47
2020/12/03 07:57:44;;;;;;;28.92;9.02;;;5.50;80.00;;;;;;5041718;28;20185;-47
2020/12/03 08:00:42;;;;;;;23.85;9.68;;;5.40;79.80;;;;;;5044015;28;20421;-45
2020/12/03 08:03:09;;;;;;;19.75;9.30;;;5.40;79.90;;;;;;5033492;28;20030;-48
2020/12/03 08:05:40;;;;;;;15.88;7.90;;;5.60;79.60;;;;;;5032786;28;20087;-49
2020/12/03 08:08:34;;;;;;;11.52;7.35;;;5.50;79.50;;;;;;5033197;28;20041;-47
2020/12/03 08:10:59;;;;;;;14.32;9.07;;;5.60;79.60;;;;;;5036082;28;20026;-49
2020/12/03 08:13:29;;;;;;;12.52;6.88;;;5.60;79.40;;;;;;5019406;28;20099;-51
2020/12/03 08:16:02;;;;;;;15.90;9.60;;;5.60;79.70;;;;;;5039195;28;20389;-48
2020/12/03 08:18:38;;;;;;;14.80;7.95;;;5.60;79.60;;;;;;5038113;28;20037;-47
2020/12/03 08:21:04;;;;;;;16.17;9.93;;;5.60;79.60;;;;;;5043225;28;20127;-49
2020/12/03 08:23:30;;;;;;;21.50;12.18;;;5.70;79.80;;;;;;5043320;28;20508;-49
2020/12/03 08:25:56;;;;;;;10.88;6.35;;;5.70;79.60;;;;;;5043759;28;20026;-47
2020/12/03 08:28:26;;;;;;;22.00;12.50;;;5.70;79.50;;;;;;5019222;28;20469;-47
2020/12/03 08:30:52;;;;;;;16.25;8.93;;;5.80;79.70;;;;;;5050528;28;20056;-48
2020/12/03 08:33:35;;;;;;;12.95;8.45;;;5.70;79.40;;;;;;5036398;28;20021;-47
2020/12/03 08:36:08;;;;;;;11.80;7.80;;;5.70;80.30;;;;;;5044823;28;20140;-48
2020/12/03 08:38:38;;;;;;;12.70;6.78;;;5.70;79.70;;;;;;5045899;28;20388;-49
2020/12/03 08:41:08;;;;;;;15.60;8.02;;;5.70;79.90;;;;;;5037419;28;20067;-46
2020/12/03 08:43:43;;;;;;;15.88;9.75;;;5.70;79.70;;;;;;5037383;28;20038;-47
2020/12/03 08:46:23;;;;;;;23.40;12.90;;;5.80;79.70;;;;;;5037585;28;20109;-47
2020/12/03 08:48:49;;;;;;;16.20;7.30;;;5.80;79.60;;;;;;5036953;28;20087;-47
2020/12/03 08:51:17;;;;;;;12.68;7.10;;;5.80;79.30;;;;;;5036720;28;20400;-48
2020/12/03 08:53:49;;;;;;;17.83;11.20;;;5.90;79.10;;;;;;5036544;28;20048;-48
2020/12/03 08:56:20;;;;;;;21.55;10.23;;;5.90;79.10;;;;;;5038399;28;20041;-47
2020/12/03 08:59:04;;;;;;;14.60;7.73;;;5.90;79.60;;;;;;5044855;28;20025;-47
2020/12/03 09:01:34;;;;;;;21.08;11.38;;;5.90;79.70;;;;;;5048876;28;20032;-46
2020/12/03 09:04:03;;;;;;;12.20;6.85;;;6.00;79.60;;;;;;5056069;28;20029;-49
2020/12/03 09:06:35;;;;;;;12.57;8.43;;;6.00;79.60;;;;;;5035496;28;20386;-46
2020/12/03 09:09:02;;;;;;;22.38;12.82;;;6.00;79.90;;;;;;5028127;28;20048;-45
2020/12/03 09:11:32;;;;;;;20.63;11.77;;;6.10;79.80;;;;;;5035870;28;20104;-47
2020/12/03 09:13:58;;;;;;;22.05;11.98;;;6.10;79.80;;;;;;5035949;28;20372;-46
2020/12/03 09:16:26;;;;;;;21.05;9.27;;;6.20;79.60;;;;;;5045838;28;20113;-47
2020/12/03 09:18:52;;;;;;;20.48;8.85;;;6.20;79.40;;;;;;5044886;28;20037;-47
2020/12/03 09:21:29;;;;;;;53.75;12.95;;;6.20;79.80;;;;;;5032994;28;20032;-47
2020/12/03 09:23:57;;;;;;;56.55;15.75;;;6.30;79.10;;;;;;5037933;28;20466;-47
2020/12/03 09:26:32;;;;;;;27.77;10.90;;;6.50;78.80;;;;;;5039615;28;20029;-46
2020/12/03 09:28:59;;;;;;;18.75;9.70;;;6.40;79.00;;;;;;5020802;28;20045;-48
2020/12/03 09:31:26;;;;;;;11.30;7.00;;;6.40;78.90;;;;;;5052586;28;20415;-47
2020/12/03 09:33:53;;;;;;;21.30;11.95;;;6.40;78.60;;;;;;5035381;28;20025;-47
2020/12/03 09:36:20;;;;;;;29.33;14.88;;;6.50;78.60;;;;;;5034809;28;20030;-47
2020/12/03 09:38:49;;;;;;;14.32;8.95;;;6.50;78.60;;;;;;5036822;28;20025;-48
2020/12/03 09:41:21;;;;;;;14.75;10.38;;;6.50;78.70;;;;;;5042410;28;20086;-47
2020/12/03 09:43:49;;;;;;;14.93;6.60;;;6.60;78.50;;;;;;5042991;28;20030;-47
2020/12/03 09:46:21;;;;;;;16.42;9.13;;;6.60;78.30;;;;;;5038465;28;20060;-47
2020/12/03 09:48:47;;;;;;;19.52;11.38;;;6.60;78.60;;;;;;5045621;28;20037;-47
2020/12/03 09:51:13;;;;;;;13.82;9.23;;;6.70;78.50;;;;;;5038698;28;20043;-47
2020/12/03 09:53:39;;;;;;;18.00;10.18;;;6.60;78.40;;;;;;5034987;28;20032;-47
2020/12/03 09:56:05;;;;;;;18.35;9.57;;;6.70;78.50;;;;;;5016300;28;20037;-46
2020/12/03 09:58:31;;;;;;;20.63;11.68;;;6.70;78.30;;;;;;5035186;28;20033;-47
2020/12/03 10:01:03;;;;;;;13.02;7.88;;;6.80;78.00;;;;;;5024003;28;20048;-46
2020/12/03 10:03:53;;;;;;;11.93;8.00;;;6.70;78.10;;;;;;5043631;28;20021;-48
2020/12/03 10:06:26;;;;;;;10.05;6.13;;;6.70;77.80;;;;;;5050786;28;20029;-47
2020/12/03 10:09:06;;;;;;;18.83;10.57;;;6.70;78.00;;;;;;5054645;28;20025;-47
2020/12/03 10:12:06;;;;;;;16.02;8.52;;;6.70;78.50;;;;;;5054894;28;20036;-48
2020/12/03 10:14:50;;;;;;;16.23;10.07;;;6.80;78.20;;;;;;4993400;28;20042;-47
2020/12/03 10:17:18;;;;;;;16.85;10.25;;;6.80;77.80;;;;;;4954254;29;20387;-47
2020/12/03 10:19:45;;;;;;;20.27;12.25;;;6.90;77.60;;;;;;4954187;29;20427;-47
2020/12/03 10:22:22;;;;;;;22.27;12.48;;;6.90;77.40;;;;;;4938424;29;20114;-47
2020/12/03 10:25:09;;;;;;;20.80;11.38;;;6.90;77.90;;;;;;4954173;29;20051;-46
2020/12/03 10:27:42;;;;;;;17.73;10.18;;;6.90;77.50;;;;;;4937909;29;20065;-46
2020/12/03 10:30:12;;;;;;;15.55;9.35;;;7.00;77.40;;;;;;4954335;29;20101;-46
2020/12/03 10:32:45;;;;;;;26.27;17.20;;;7.00;77.40;;;;;;4947619;29;20035;-46
2020/12/03 10:35:11;;;;;;;19.33;11.98;;;7.10;77.20;;;;;;4935109;29;20043;-47
2020/12/03 10:38:00;;;;;;;22.85;13.88;;;7.10;77.00;;;;;;4945407;29;20055;-46
2020/12/03 10:40:27;;;;;;;101.65;17.90;;;7.10;77.40;;;;;;4953855;29;20122;-46
2020/12/03 10:43:05;;;;;;;19.77;12.85;;;7.20;76.90;;;;;;4954085;29;20467;-46
2020/12/03 10:45:35;;;;;;;19.50;12.43;;;7.20;76.80;;;;;;4954333;29;20066;-45
2020/12/03 10:48:10;;;;;;;21.08;11.55;;;7.20;76.60;;;;;;4921754;28;20651;-46
2020/12/03 10:50:50;;;;;;;22.23;14.20;;;7.20;76.30;;;;;;4997406;28;20037;-46
2020/12/03 10:53:27;;;;;;;22.42;15.55;;;7.30;75.80;;;;;;5034257;28;20030;-45
2020/12/03 10:56:02;;;;;;;22.13;15.93;;;7.20;76.10;;;;;;5034361;28;20420;-45
2020/12/03 10:58:31;;;;;;;22.33;13.05;;;7.30;76.00;;;;;;5034185;28;20029;-46
2020/12/03 11:01:04;;;;;;;14.02;8.77;;;7.20;76.60;;;;;;5033968;28;20041;-48
2020/12/03 11:03:31;;;;;;;21.38;12.52;;;7.10;76.90;;;;;;5034046;28;20029;-45
2020/12/03 11:05:57;;;;;;;20.38;12.40;;;7.20;77.60;;;;;;5034037;28;20040;-46
2020/12/03 11:08:24;;;;;;;24.33;13.57;;;7.20;77.50;;;;;;5033900;28;20026;-47
2020/12/03 11:10:54;;;;;;;25.17;15.20;;;7.20;78.20;;;;;;5033689;28;20021;-46
2020/12/03 11:13:20;;;;;;;20.23;12.68;;;7.20;78.50;;;;;;5033497;28;20470;-46
2020/12/03 11:15:49;;;;;;;25.27;14.52;;;7.20;78.70;;;;;;5033700;28;20473;-47
2020/12/03 11:18:22;;;;;;;25.33;16.75;;;7.10;78.90;;;;;;5033612;28;20064;-46
2020/12/03 11:21:04;;;;;;;23.95;16.95;;;7.20;79.70;;;;;;5015011;28;20030;-47
2020/12/03 11:23:31;;;;;;;28.25;18.63;;;7.30;79.40;;;;;;5039068;28;20076;-46
2020/12/03 11:26:04;;;;;;;29.35;19.50;;;7.30;79.10;;;;;;5033690;28;20033;-47
2020/12/03 11:28:34;;;;;;;30.50;17.08;;;7.30;79.20;;;;;;5026962;28;20151;-46
2020/12/03 11:31:05;;;;;;;28.48;15.75;;;7.40;79.00;;;;;;5025113;28;20053;-47
2020/12/03 11:33:38;;;;;;;24.85;15.40;;;7.40;78.40;;;;;;5041336;28;20025;-50
2020/12/03 11:36:09;;;;;;;20.83;13.63;;;7.40;78.80;;;;;;5041771;28;20432;-46
2020/12/03 11:38:35;;;;;;;27.38;15.32;;;7.50;78.80;;;;;;5051029;28;20366;-46
2020/12/03 11:41:16;;;;;;;21.20;14.75;;;7.60;78.10;;;;;;5051792;28;20029;-47
2020/12/03 11:43:55;;;;;;;22.77;14.50;;;7.70;78.20;;;;;;5043002;28;20029;-46
2020/12/03 11:49:09;;;;;;;23.25;14.32;;;7.70;78.50;;;;;;5033829;28;20040;-46
2020/12/03 11:51:36;;;;;;;23.85;14.50;;;7.70;78.30;;;;;;5015184;28;20120;-47
2020/12/03 11:54:04;;;;;;;23.83;15.43;;;7.60;78.50;;;;;;5031497;28;20087;-46
2020/12/03 11:56:30;;;;;;;17.77;11.23;;;7.70;78.30;;;;;;5033406;28;20403;-47
2020/12/03 11:59:15;;;;;;;19.70;13.10;;;7.70;78.00;;;;;;5033261;28;20049;-47
2020/12/03 12:01:59;;;;;;;19.92;12.85;;;7.80;78.00;;;;;;5034868;28;20075;-46
2020/12/03 12:09:45;;;;;;;13.77;9.48;;;7.80;78.10;;;;;;5037482;28;20033;-47
2020/12/03 12:12:10;;;;;;;17.20;12.07;;;7.80;77.90;;;;;;5039138;28;20445;-46
2020/12/03 12:14:36;;;;;;;13.90;8.93;;;7.80;77.30;;;;;;5020780;28;20061;-46
2020/12/03 12:17:02;;;;;;;21.55;11.10;;;7.90;77.20;;;;;;5038515;28;20116;-47
2020/12/03 12:19:29;;;;;;;15.43;9.40;;;7.90;77.20;;;;;;5038409;28;20029;-46
2020/12/03 12:21:56;;;;;;;17.58;10.82;;;7.90;77.60;;;;;;5037608;28;20037;-46
2020/12/03 12:24:22;;;;;;;18.60;12.50;;;7.90;76.90;;;;;;5036602;28;20061;-46
2020/12/03 12:26:49;;;;;;;19.30;13.60;;;7.90;76.30;;;;;;5035724;28;20037;-46
2020/12/03 12:29:15;;;;;;;20.45;10.68;;;8.00;76.70;;;;;;5036854;28;20068;-46
2020/12/03 12:31:40;;;;;;;14.25;7.88;;;7.90;76.80;;;;;;5034827;28;20068;-46
2020/12/03 12:34:06;;;;;;;18.98;13.23;;;7.90;76.30;;;;;;5037023;28;20069;-46
2020/12/03 12:36:32;;;;;;;19.10;10.90;;;8.00;76.40;;;;;;5036988;28;20068;-46
2020/12/03 12:38:58;;;;;;;18.10;11.77;;;7.90;76.40;;;;;;5036621;28;20500;-46
2020/12/03 12:41:23;;;;;;;16.88;10.88;;;7.90;76.20;;;;;;5036951;28;20116;-46
2020/12/03 12:43:49;;;;;;;17.83;10.98;;;7.80;76.70;;;;;;5018335;28;20049;-46
2020/12/03 12:46:24;;;;;;;21.13;13.80;;;7.90;76.60;;;;;;5034266;28;20049;-46
2020/12/03 12:48:51;;;;;;;19.30;12.00;;;7.90;76.50;;;;;;5036020;28;20042;-46
2020/12/03 12:51:17;;;;;;;17.70;11.35;;;7.80;76.60;;;;;;5045241;28;20029;-47
2020/12/03 12:53:43;;;;;;;20.23;11.18;;;7.80;76.80;;;;;;5056445;28;20033;-46
2020/12/03 12:56:10;;;;;;;15.75;10.23;;;7.80;76.70;;;;;;5037457;28;20052;-47
2020/12/03 12:58:36;;;;;;;17.60;12.10;;;7.90;76.50;;;;;;5037086;28;20045;-45
2020/12/03 13:01:03;;;;;;;15.77;9.00;;;7.90;76.60;;;;;;5056019;28;20025;-46
2020/12/03 13:03:29;;;;;;;40.85;22.88;;;7.90;76.10;;;;;;5043072;28;20124;-46
2020/12/03 13:05:55;;;;;;;40.33;20.48;;;7.90;76.30;;;;;;5036038;28;20065;-46
2020/12/03 13:08:21;;;;;;;42.25;23.23;;;8.00;76.60;;;;;;5035407;28;20037;-46
2020/12/03 13:10:46;;;;;;;35.65;17.45;;;7.90;76.10;;;;;;5017387;28;20045;-46
2020/12/03 13:13:12;;;;;;;32.53;19.13;;;7.90;75.90;;;;;;5034884;28;20401;-47